KFAM/FAM METAR and TAF weather

Enter ICAO airport designator
Station Type Date Time Source
KFAM METAR 2020/11/27 01:56 UTC NOAA

KFAM 270156Z AUTO 17006KT 10SM CLR 06/04 A3008 RMK AO2 SLP201 T00610044


Station Type Date Time Source
KFAM Decoded METAR 2020/11/27 01:56 UTC NOAA

Farmington Airport, MO, United States (KFAM) 37-46N 090-26W
Nov 26, 2020 - 08:56 PM EST / 2020.11.27 0156 UTC
Wind: from the S (170 degrees) at 7 MPH (6 KT):0
Visibility: 10 mile(s):0
Sky conditions: clear
Temperature: 43.0 F (6.1 C)
Dew Point: 39.9 F (4.4 C)
Relative Humidity: 88%
Pressure (altimeter): 30.08 in. Hg (1018 hPa)
ob: KFAM 270156Z AUTO 17006KT 10SM CLR 06/04 A3008 RMK AO2 SLP201 T00610044
cycle: 2

Station Type Date Time Source
KFAM TAF UTC NOAA

Error!

Example: see airport list